sensor_id;sensor_type;location;lat;lon;timestamp;P1;durP1;ratioP1;P2;durP2;ratioP2
66175;SDS011;52977;44.816;20.538;2022-07-17T00:01:04;6.25;;;3.03;;
66175;SDS011;52977;44.816;20.538;2022-07-17T00:03:30;6.50;;;3.10;;
66175;SDS011;52977;44.816;20.538;2022-07-17T00:05:59;5.78;;;3.40;;
66175;SDS011;52977;44.816;20.538;2022-07-17T00:08:24;6.60;;;3.30;;
66175;SDS011;52977;44.816;20.538;2022-07-17T00:10:50;7.35;;;3.33;;
66175;SDS011;52977;44.816;20.538;2022-07-17T00:13:16;7.25;;;3.75;;
66175;SDS011;52977;44.816;20.538;2022-07-17T00:15:42;7.03;;;3.50;;
66175;SDS011;52977;44.816;20.538;2022-07-17T00:18:08;6.45;;;3.67;;
66175;SDS011;52977;44.816;20.538;2022-07-17T00:20:34;7.45;;;3.88;;
66175;SDS011;52977;44.816;20.538;2022-07-17T00:23:00;9.80;;;4.43;;
66175;SDS011;52977;44.816;20.538;2022-07-17T00:25:26;7.80;;;4.13;;
66175;SDS011;52977;44.816;20.538;2022-07-17T00:27:51;10.27;;;4.68;;
66175;SDS011;52977;44.816;20.538;2022-07-17T00:30:18;8.23;;;4.63;;
66175;SDS011;52977;44.816;20.538;2022-07-17T00:32:44;14.55;;;5.47;;
66175;SDS011;52977;44.816;20.538;2022-07-17T00:35:10;10.55;;;5.97;;
66175;SDS011;52977;44.816;20.538;2022-07-17T00:37:39;13.60;;;5.60;;
66175;SDS011;52977;44.816;20.538;2022-07-17T00:40:07;9.98;;;5.00;;
66175;SDS011;52977;44.816;20.538;2022-07-17T00:42:34;11.98;;;6.60;;
66175;SDS011;52977;44.816;20.538;2022-07-17T00:45:00;10.15;;;6.20;;
66175;SDS011;52977;44.816;20.538;2022-07-17T00:47:26;12.02;;;6.47;;
66175;SDS011;52977;44.816;20.538;2022-07-17T00:49:52;14.98;;;6.60;;
66175;SDS011;52977;44.816;20.538;2022-07-17T00:52:18;13.02;;;6.60;;
66175;SDS011;52977;44.816;20.538;2022-07-17T00:54:45;14.35;;;6.65;;
66175;SDS011;52977;44.816;20.538;2022-07-17T00:57:12;12.85;;;6.28;;
66175;SDS011;52977;44.816;20.538;2022-07-17T00:59:40;10.07;;;6.35;;
66175;SDS011;52977;44.816;20.538;2022-07-17T01:02:07;13.13;;;5.75;;
66175;SDS011;52977;44.816;20.538;2022-07-17T01:04:34;13.57;;;5.90;;
66175;SDS011;52977;44.816;20.538;2022-07-17T01:07:01;11.73;;;5.97;;
66175;SDS011;52977;44.816;20.538;2022-07-17T01:09:28;9.93;;;6.13;;
66175;SDS011;52977;44.816;20.538;2022-07-17T01:11:55;8.40;;;5.10;;
66175;SDS011;52977;44.816;20.538;2022-07-17T01:14:24;9.77;;;5.55;;
66175;SDS011;52977;44.816;20.538;2022-07-17T01:16:51;12.07;;;5.68;;
66175;SDS011;52977;44.816;20.538;2022-07-17T01:19:18;10.60;;;5.50;;
66175;SDS011;52977;44.816;20.538;2022-07-17T01:21:45;10.00;;;5.50;;
66175;SDS011;52977;44.816;20.538;2022-07-17T01:26:41;8.85;;;5.35;;
66175;SDS011;52977;44.816;20.538;2022-07-17T01:29:11;9.05;;;5.13;;
66175;SDS011;52977;44.816;20.538;2022-07-17T01:31:44;9.20;;;4.63;;
66175;SDS011;52977;44.816;20.538;2022-07-17T01:34:10;8.25;;;4.85;;
66175;SDS011;52977;44.816;20.538;2022-07-17T01:36:38;10.70;;;4.50;;
66175;SDS011;52977;44.816;20.538;2022-07-17T01:39:04;7.63;;;4.47;;
66175;SDS011;52977;44.816;20.538;2022-07-17T01:41:30;10.50;;;5.32;;
66175;SDS011;52977;44.816;20.538;2022-07-17T01:43:56;10.85;;;4.95;;
66175;SDS011;52977;44.816;20.538;2022-07-17T01:46:23;8.32;;;4.50;;
66175;SDS011;52977;44.816;20.538;2022-07-17T01:48:48;8.88;;;4.15;;
66175;SDS011;52977;44.816;20.538;2022-07-17T01:51:14;9.80;;;4.60;;
66175;SDS011;52977;44.816;20.538;2022-07-17T01:53:39;10.10;;;6.10;;
66175;SDS011;52977;44.816;20.538;2022-07-17T01:56:08;9.68;;;5.75;;
66175;SDS011;52977;44.816;20.538;2022-07-17T01:58:33;13.07;;;6.07;;
66175;SDS011;52977;44.816;20.538;2022-07-17T02:00:59;11.82;;;5.50;;
66175;SDS011;52977;44.816;20.538;2022-07-17T02:03:25;10.27;;;5.88;;
66175;SDS011;52977;44.816;20.538;2022-07-17T02:05:50;9.50;;;5.82;;
66175;SDS011;52977;44.816;20.538;2022-07-17T02:08:16;10.15;;;5.20;;
66175;SDS011;52977;44.816;20.538;2022-07-17T02:10:42;10.73;;;5.43;;
66175;SDS011;52977;44.816;20.538;2022-07-17T02:13:08;10.45;;;4.78;;
66175;SDS011;52977;44.816;20.538;2022-07-17T02:15:33;8.80;;;5.20;;
66175;SDS011;52977;44.816;20.538;2022-07-17T02:17:59;10.43;;;5.15;;
66175;SDS011;52977;44.816;20.538;2022-07-17T02:20:25;8.75;;;4.93;;
66175;SDS011;52977;44.816;20.538;2022-07-17T02:22:51;8.90;;;5.30;;
66175;SDS011;52977;44.816;20.538;2022-07-17T02:25:16;8.90;;;4.57;;
66175;SDS011;52977;44.816;20.538;2022-07-17T02:27:42;8.32;;;4.68;;
66175;SDS011;52977;44.816;20.538;2022-07-17T02:30:09;8.20;;;5.00;;
66175;SDS011;52977;44.816;20.538;2022-07-17T02:32:37;12.77;;;5.22;;
66175;SDS011;52977;44.816;20.538;2022-07-17T02:35:04;9.73;;;4.65;;
66175;SDS011;52977;44.816;20.538;2022-07-17T02:37:30;7.18;;;4.40;;
66175;SDS011;52977;44.816;20.538;2022-07-17T02:39:56;7.82;;;4.93;;
66175;SDS011;52977;44.816;20.538;2022-07-17T02:42:22;9.82;;;5.30;;
66175;SDS011;52977;44.816;20.538;2022-07-17T02:44:49;9.27;;;4.63;;
66175;SDS011;52977;44.816;20.538;2022-07-17T02:47:22;15.13;;;4.85;;
66175;SDS011;52977;44.816;20.538;2022-07-17T02:49:58;7.63;;;4.65;;
66175;SDS011;52977;44.816;20.538;2022-07-17T02:52:26;7.78;;;4.43;;
66175;SDS011;52977;44.816;20.538;2022-07-17T02:54:52;7.45;;;4.60;;
66175;SDS011;52977;44.816;20.538;2022-07-17T02:57:18;9.98;;;4.60;;
66175;SDS011;52977;44.816;20.538;2022-07-17T02:59:43;9.52;;;4.70;;
66175;SDS011;52977;44.816;20.538;2022-07-17T03:02:09;7.32;;;4.32;;
66175;SDS011;52977;44.816;20.538;2022-07-17T03:04:35;9.98;;;4.78;;
66175;SDS011;52977;44.816;20.538;2022-07-17T03:07:01;9.00;;;4.30;;
66175;SDS011;52977;44.816;20.538;2022-07-17T03:09:26;10.02;;;4.82;;
66175;SDS011;52977;44.816;20.538;2022-07-17T03:11:52;7.25;;;4.28;;
66175;SDS011;52977;44.816;20.538;2022-07-17T03:14:17;9.70;;;4.70;;
66175;SDS011;52977;44.816;20.538;2022-07-17T03:16:43;11.95;;;4.47;;
66175;SDS011;52977;44.816;20.538;2022-07-17T03:19:09;6.95;;;4.40;;
66175;SDS011;52977;44.816;20.538;2022-07-17T03:21:34;8.15;;;4.40;;
66175;SDS011;52977;44.816;20.538;2022-07-17T03:24:02;8.55;;;4.60;;
66175;SDS011;52977;44.816;20.538;2022-07-17T03:26:28;8.13;;;4.65;;
66175;SDS011;52977;44.816;20.538;2022-07-17T03:28:54;8.77;;;5.03;;
66175;SDS011;52977;44.816;20.538;2022-07-17T03:31:19;9.35;;;4.75;;
66175;SDS011;52977;44.816;20.538;2022-07-17T03:33:45;7.75;;;3.83;;
66175;SDS011;52977;44.816;20.538;2022-07-17T03:36:11;8.85;;;3.83;;
66175;SDS011;52977;44.816;20.538;2022-07-17T03:38:36;7.75;;;4.28;;
66175;SDS011;52977;44.816;20.538;2022-07-17T03:41:02;5.65;;;3.80;;
66175;SDS011;52977;44.816;20.538;2022-07-17T03:43:27;7.20;;;4.22;;
66175;SDS011;52977;44.816;20.538;2022-07-17T03:45:53;8.20;;;4.45;;
66175;SDS011;52977;44.816;20.538;2022-07-17T03:48:19;6.88;;;3.67;;
66175;SDS011;52977;44.816;20.538;2022-07-17T03:50:45;10.10;;;4.20;;
66175;SDS011;52977;44.816;20.538;2022-07-17T03:53:10;7.55;;;3.88;;
66175;SDS011;52977;44.816;20.538;2022-07-17T03:55:36;10.23;;;4.00;;
66175;SDS011;52977;44.816;20.538;2022-07-17T03:58:01;6.53;;;3.47;;
66175;SDS011;52977;44.816;20.538;2022-07-17T04:00:27;6.82;;;3.60;;
66175;SDS011;52977;44.816;20.538;2022-07-17T04:02:53;7.20;;;3.80;;
66175;SDS011;52977;44.816;20.538;2022-07-17T04:05:19;6.63;;;3.78;;
66175;SDS011;52977;44.816;20.538;2022-07-17T04:07:45;7.57;;;4.53;;
66175;SDS011;52977;44.816;20.538;2022-07-17T04:10:11;7.43;;;3.80;;
66175;SDS011;52977;44.816;20.538;2022-07-17T04:12:38;5.88;;;3.92;;
66175;SDS011;52977;44.816;20.538;2022-07-17T04:15:05;6.38;;;3.65;;
66175;SDS011;52977;44.816;20.538;2022-07-17T04:17:31;5.43;;;3.55;;
66175;SDS011;52977;44.816;20.538;2022-07-17T04:19:57;5.35;;;3.42;;
66175;SDS011;52977;44.816;20.538;2022-07-17T04:22:23;7.05;;;3.78;;
66175;SDS011;52977;44.816;20.538;2022-07-17T04:24:49;6.70;;;3.30;;
66175;SDS011;52977;44.816;20.538;2022-07-17T04:27:23;7.03;;;3.67;;
66175;SDS011;52977;44.816;20.538;2022-07-17T04:29:49;7.45;;;3.42;;
66175;SDS011;52977;44.816;20.538;2022-07-17T04:32:14;7.63;;;3.80;;
66175;SDS011;52977;44.816;20.538;2022-07-17T04:34:40;7.10;;;3.63;;
66175;SDS011;52977;44.816;20.538;2022-07-17T04:37:06;6.10;;;3.45;;
66175;SDS011;52977;44.816;20.538;2022-07-17T04:39:32;6.13;;;3.28;;
66175;SDS011;52977;44.816;20.538;2022-07-17T04:41:57;6.03;;;3.58;;
66175;SDS011;52977;44.816;20.538;2022-07-17T04:44:23;6.35;;;3.60;;
66175;SDS011;52977;44.816;20.538;2022-07-17T04:46:49;5.32;;;3.25;;
66175;SDS011;52977;44.816;20.538;2022-07-17T04:49:14;6.50;;;3.30;;
66175;SDS011;52977;44.816;20.538;2022-07-17T04:51:41;6.10;;;3.08;;
66175;SDS011;52977;44.816;20.538;2022-07-17T04:54:06;9.23;;;3.25;;
66175;SDS011;52977;44.816;20.538;2022-07-17T04:56:32;6.85;;;3.00;;
66175;SDS011;52977;44.816;20.538;2022-07-17T04:58:58;5.80;;;3.10;;
66175;SDS011;52977;44.816;20.538;2022-07-17T05:01:23;5.03;;;3.10;;
66175;SDS011;52977;44.816;20.538;2022-07-17T05:03:49;5.70;;;2.85;;
66175;SDS011;52977;44.816;20.538;2022-07-17T05:06:14;7.38;;;3.25;;
66175;SDS011;52977;44.816;20.538;2022-07-17T05:08:40;5.15;;;2.80;;
66175;SDS011;52977;44.816;20.538;2022-07-17T05:11:06;6.07;;;2.60;;
66175;SDS011;52977;44.816;20.538;2022-07-17T05:13:31;6.05;;;2.90;;
66175;SDS011;52977;44.816;20.538;2022-07-17T05:15:57;7.00;;;3.03;;
66175;SDS011;52977;44.816;20.538;2022-07-17T05:18:22;6.05;;;2.97;;
66175;SDS011;52977;44.816;20.538;2022-07-17T05:20:48;5.43;;;3.13;;
66175;SDS011;52977;44.816;20.538;2022-07-17T05:23:13;6.07;;;3.00;;
66175;SDS011;52977;44.816;20.538;2022-07-17T05:25:39;6.75;;;3.08;;
66175;SDS011;52977;44.816;20.538;2022-07-17T05:28:05;6.13;;;3.33;;
66175;SDS011;52977;44.816;20.538;2022-07-17T05:30:30;4.68;;;2.80;;
66175;SDS011;52977;44.816;20.538;2022-07-17T05:32:56;7.85;;;3.08;;
66175;SDS011;52977;44.816;20.538;2022-07-17T05:35:22;5.10;;;3.05;;
66175;SDS011;52977;44.816;20.538;2022-07-17T05:37:47;8.15;;;3.40;;
66175;SDS011;52977;44.816;20.538;2022-07-17T05:40:15;7.65;;;3.28;;
66175;SDS011;52977;44.816;20.538;2022-07-17T05:42:41;7.38;;;3.40;;
66175;SDS011;52977;44.816;20.538;2022-07-17T05:45:07;4.68;;;2.85;;
66175;SDS011;52977;44.816;20.538;2022-07-17T05:47:32;6.00;;;2.88;;
66175;SDS011;52977;44.816;20.538;2022-07-17T05:49:58;8.35;;;3.20;;
66175;SDS011;52977;44.816;20.538;2022-07-17T05:52:24;5.97;;;2.60;;
66175;SDS011;52977;44.816;20.538;2022-07-17T05:54:49;6.28;;;3.15;;
66175;SDS011;52977;44.816;20.538;2022-07-17T05:57:16;4.97;;;2.78;;
66175;SDS011;52977;44.816;20.538;2022-07-17T05:59:42;4.95;;;3.00;;
66175;SDS011;52977;44.816;20.538;2022-07-17T06:02:07;6.53;;;3.38;;
66175;SDS011;52977;44.816;20.538;2022-07-17T06:04:33;6.28;;;3.45;;
66175;SDS011;52977;44.816;20.538;2022-07-17T06:06:59;4.20;;;3.10;;
66175;SDS011;52977;44.816;20.538;2022-07-17T06:09:25;7.38;;;3.45;;
66175;SDS011;52977;44.816;20.538;2022-07-17T06:11:50;6.72;;;3.45;;
66175;SDS011;52977;44.816;20.538;2022-07-17T06:14:22;6.07;;;3.10;;
66175;SDS011;52977;44.816;20.538;2022-07-17T06:16:50;6.72;;;3.28;;
66175;SDS011;52977;44.816;20.538;2022-07-17T06:19:15;5.32;;;3.38;;
66175;SDS011;52977;44.816;20.538;2022-07-17T06:21:41;6.28;;;2.97;;
66175;SDS011;52977;44.816;20.538;2022-07-17T06:24:06;6.07;;;3.17;;
66175;SDS011;52977;44.816;20.538;2022-07-17T06:26:32;6.55;;;3.08;;
66175;SDS011;52977;44.816;20.538;2022-07-17T06:28:58;4.72;;;3.10;;
66175;SDS011;52977;44.816;20.538;2022-07-17T06:31:23;8.25;;;3.28;;
66175;SDS011;52977;44.816;20.538;2022-07-17T06:33:49;5.25;;;3.20;;
66175;SDS011;52977;44.816;20.538;2022-07-17T06:36:14;8.93;;;3.53;;
66175;SDS011;52977;44.816;20.538;2022-07-17T06:38:40;7.15;;;3.42;;
66175;SDS011;52977;44.816;20.538;2022-07-17T06:41:05;5.68;;;3.05;;
66175;SDS011;52977;44.816;20.538;2022-07-17T06:43:31;7.22;;;3.40;;
66175;SDS011;52977;44.816;20.538;2022-07-17T06:45:57;11.88;;;4.32;;
66175;SDS011;52977;44.816;20.538;2022-07-17T06:48:23;6.18;;;3.33;;
66175;SDS011;52977;44.816;20.538;2022-07-17T06:50:48;4.63;;;2.90;;
66175;SDS011;52977;44.816;20.538;2022-07-17T06:53:14;5.80;;;3.30;;
66175;SDS011;52977;44.816;20.538;2022-07-17T06:55:40;6.55;;;2.90;;
66175;SDS011;52977;44.816;20.538;2022-07-17T06:58:06;4.05;;;2.88;;
66175;SDS011;52977;44.816;20.538;2022-07-17T07:00:32;6.50;;;3.53;;
66175;SDS011;52977;44.816;20.538;2022-07-17T07:02:57;6.50;;;4.10;;
66175;SDS011;52977;44.816;20.538;2022-07-17T07:05:23;7.55;;;3.88;;
66175;SDS011;52977;44.816;20.538;2022-07-17T07:07:49;7.68;;;3.05;;
66175;SDS011;52977;44.816;20.538;2022-07-17T07:10:14;5.70;;;3.63;;
66175;SDS011;52977;44.816;20.538;2022-07-17T07:12:40;6.85;;;3.95;;
66175;SDS011;52977;44.816;20.538;2022-07-17T07:15:06;4.97;;;3.58;;
66175;SDS011;52977;44.816;20.538;2022-07-17T07:17:33;7.30;;;3.67;;
66175;SDS011;52977;44.816;20.538;2022-07-17T07:20:00;4.93;;;3.10;;
66175;SDS011;52977;44.816;20.538;2022-07-17T07:22:26;5.50;;;2.92;;
66175;SDS011;52977;44.816;20.538;2022-07-17T07:24:52;7.30;;;3.38;;
66175;SDS011;52977;44.816;20.538;2022-07-17T07:27:18;8.80;;;2.97;;
66175;SDS011;52977;44.816;20.538;2022-07-17T07:29:43;7.18;;;2.85;;
66175;SDS011;52977;44.816;20.538;2022-07-17T07:32:09;7.70;;;3.78;;
66175;SDS011;52977;44.816;20.538;2022-07-17T07:34:34;5.40;;;2.92;;
66175;SDS011;52977;44.816;20.538;2022-07-17T07:37:00;6.97;;;3.47;;
66175;SDS011;52977;44.816;20.538;2022-07-17T07:39:26;4.95;;;2.60;;
66175;SDS011;52977;44.816;20.538;2022-07-17T07:41:51;5.28;;;2.80;;
66175;SDS011;52977;44.816;20.538;2022-07-17T07:44:17;5.03;;;2.40;;
66175;SDS011;52977;44.816;20.538;2022-07-17T07:46:45;5.75;;;2.78;;
66175;SDS011;52977;44.816;20.538;2022-07-17T07:49:11;5.05;;;2.60;;
66175;SDS011;52977;44.816;20.538;2022-07-17T07:51:36;7.88;;;2.70;;
66175;SDS011;52977;44.816;20.538;2022-07-17T07:54:02;6.70;;;4.13;;
66175;SDS011;52977;44.816;20.538;2022-07-17T07:56:28;5.70;;;2.70;;
66175;SDS011;52977;44.816;20.538;2022-07-17T07:58:53;3.97;;;2.35;;
66175;SDS011;52977;44.816;20.538;2022-07-17T08:01:19;3.28;;;1.90;;
66175;SDS011;52977;44.816;20.538;2022-07-17T08:03:44;4.38;;;2.35;;
66175;SDS011;52977;44.816;20.538;2022-07-17T08:06:10;5.07;;;2.20;;
66175;SDS011;52977;44.816;20.538;2022-07-17T08:08:36;4.28;;;2.50;;
66175;SDS011;52977;44.816;20.538;2022-07-17T08:11:02;5.55;;;3.10;;
66175;SDS011;52977;44.816;20.538;2022-07-17T08:13:27;3.42;;;2.10;;
66175;SDS011;52977;44.816;20.538;2022-07-17T08:15:53;6.25;;;1.98;;
66175;SDS011;52977;44.816;20.538;2022-07-17T08:18:18;4.78;;;1.90;;
66175;SDS011;52977;44.816;20.538;2022-07-17T08:20:44;4.80;;;1.70;;
66175;SDS011;52977;44.816;20.538;2022-07-17T08:23:10;6.68;;;1.70;;
66175;SDS011;52977;44.816;20.538;2022-07-17T08:25:38;3.65;;;1.70;;
66175;SDS011;52977;44.816;20.538;2022-07-17T08:28:04;3.58;;;1.67;;
66175;SDS011;52977;44.816;20.538;2022-07-17T08:30:31;4.10;;;2.08;;
66175;SDS011;52977;44.816;20.538;2022-07-17T08:33:01;4.60;;;1.95;;
66175;SDS011;52977;44.816;20.538;2022-07-17T08:35:30;3.03;;;1.63;;
66175;SDS011;52977;44.816;20.538;2022-07-17T08:37:55;5.72;;;1.90;;
66175;SDS011;52977;44.816;20.538;2022-07-17T08:42:48;5.10;;;1.73;;
66175;SDS011;52977;44.816;20.538;2022-07-17T08:45:14;5.32;;;1.88;;
66175;SDS011;52977;44.816;20.538;2022-07-17T08:47:40;4.78;;;1.73;;
66175;SDS011;52977;44.816;20.538;2022-07-17T08:50:07;5.00;;;1.58;;
66175;SDS011;52977;44.816;20.538;2022-07-17T08:52:35;4.57;;;1.42;;
66175;SDS011;52977;44.816;20.538;2022-07-17T08:55:02;4.00;;;1.35;;
66175;SDS011;52977;44.816;20.538;2022-07-17T08:57:28;3.25;;;1.67;;
66175;SDS011;52977;44.816;20.538;2022-07-17T08:59:54;3.75;;;1.40;;
66175;SDS011;52977;44.816;20.538;2022-07-17T09:02:19;2.47;;;1.40;;
66175;SDS011;52977;44.816;20.538;2022-07-17T09:04:54;5.63;;;1.45;;
66175;SDS011;52977;44.816;20.538;2022-07-17T09:07:20;4.05;;;1.30;;
66175;SDS011;52977;44.816;20.538;2022-07-17T09:09:50;3.35;;;1.30;;
66175;SDS011;52977;44.816;20.538;2022-07-17T09:12:16;4.50;;;1.30;;
66175;SDS011;52977;44.816;20.538;2022-07-17T09:14:42;3.15;;;1.35;;
66175;SDS011;52977;44.816;20.538;2022-07-17T09:17:09;2.78;;;1.40;;
66175;SDS011;52977;44.816;20.538;2022-07-17T09:19:37;3.15;;;1.30;;
66175;SDS011;52977;44.816;20.538;2022-07-17T09:22:10;3.13;;;1.35;;
66175;SDS011;52977;44.816;20.538;2022-07-17T09:24:44;4.45;;;1.98;;
66175;SDS011;52977;44.816;20.538;2022-07-17T09:27:11;4.40;;;2.00;;
66175;SDS011;52977;44.816;20.538;2022-07-17T09:32:39;2.47;;;1.27;;
66175;SDS011;52977;44.816;20.538;2022-07-17T09:35:06;5.28;;;1.60;;
66175;SDS011;52977;44.816;20.538;2022-07-17T09:37:34;2.75;;;1.52;;
66175;SDS011;52977;44.816;20.538;2022-07-17T09:40:01;3.88;;;1.40;;
66175;SDS011;52977;44.816;20.538;2022-07-17T09:42:33;2.60;;;1.42;;
66175;SDS011;52977;44.816;20.538;2022-07-17T09:45:04;6.10;;;1.73;;
66175;SDS011;52977;44.816;20.538;2022-07-17T09:47:32;3.22;;;1.50;;
66175;SDS011;52977;44.816;20.538;2022-07-17T09:49:59;4.60;;;1.95;;
66175;SDS011;52977;44.816;20.538;2022-07-17T09:52:27;2.70;;;1.50;;
66175;SDS011;52977;44.816;20.538;2022-07-17T09:54:58;2.92;;;1.77;;
66175;SDS011;52977;44.816;20.538;2022-07-17T09:57:34;6.25;;;2.00;;
66175;SDS011;52977;44.816;20.538;2022-07-17T10:00:04;4.28;;;1.60;;
66175;SDS011;52977;44.816;20.538;2022-07-17T10:02:41;3.33;;;1.70;;
66175;SDS011;52977;44.816;20.538;2022-07-17T10:05:12;5.07;;;1.70;;
66175;SDS011;52977;44.816;20.538;2022-07-17T10:07:43;2.53;;;1.50;;
66175;SDS011;52977;44.816;20.538;2022-07-17T10:10:13;2.95;;;1.40;;
66175;SDS011;52977;44.816;20.538;2022-07-17T10:12:42;3.53;;;1.90;;
66175;SDS011;52977;44.816;20.538;2022-07-17T10:15:09;5.10;;;1.60;;
66175;SDS011;52977;44.816;20.538;2022-07-17T10:17:35;4.85;;;1.77;;
66175;SDS011;52977;44.816;20.538;2022-07-17T10:20:01;3.22;;;1.70;;
66175;SDS011;52977;44.816;20.538;2022-07-17T10:22:40;3.05;;;1.55;;
66175;SDS011;52977;44.816;20.538;2022-07-17T10:25:13;3.53;;;1.45;;
66175;SDS011;52977;44.816;20.538;2022-07-17T10:28:14;2.65;;;1.40;;
66175;SDS011;52977;44.816;20.538;2022-07-17T10:30:33;3.10;;;1.67;;
66175;SDS011;52977;44.816;20.538;2022-07-17T10:33:01;3.28;;;1.40;;
66175;SDS011;52977;44.816;20.538;2022-07-17T10:35:43;2.78;;;1.50;;
66175;SDS011;52977;44.816;20.538;2022-07-17T10:38:11;3.08;;;1.45;;
66175;SDS011;52977;44.816;20.538;2022-07-17T10:40:40;3.75;;;1.60;;
66175;SDS011;52977;44.816;20.538;2022-07-17T10:43:07;5.22;;;3.33;;
66175;SDS011;52977;44.816;20.538;2022-07-17T10:45:43;4.18;;;2.10;;
66175;SDS011;52977;44.816;20.538;2022-07-17T10:50:49;3.63;;;1.98;;
66175;SDS011;52977;44.816;20.538;2022-07-17T10:55:47;3.90;;;1.58;;
66175;SDS011;52977;44.816;20.538;2022-07-17T10:58:15;4.00;;;1.60;;
66175;SDS011;52977;44.816;20.538;2022-07-17T11:00:41;4.22;;;1.95;;
66175;SDS011;52977;44.816;20.538;2022-07-17T11:03:10;7.40;;;3.58;;
66175;SDS011;52977;44.816;20.538;2022-07-17T11:05:36;4.63;;;1.30;;
66175;SDS011;52977;44.816;20.538;2022-07-17T11:08:02;4.35;;;1.50;;
66175;SDS011;52977;44.816;20.538;2022-07-17T11:10:31;3.00;;;1.40;;
66175;SDS011;52977;44.816;20.538;2022-07-17T11:13:06;3.80;;;1.50;;
66175;SDS011;52977;44.816;20.538;2022-07-17T11:15:47;3.33;;;1.52;;
66175;SDS011;52977;44.816;20.538;2022-07-17T11:18:15;5.00;;;2.92;;
66175;SDS011;52977;44.816;20.538;2022-07-17T11:20:46;3.38;;;1.70;;
66175;SDS011;52977;44.816;20.538;2022-07-17T11:23:14;4.38;;;1.65;;
66175;SDS011;52977;44.816;20.538;2022-07-17T11:25:40;6.45;;;1.70;;
66175;SDS011;52977;44.816;20.538;2022-07-17T11:28:26;3.10;;;1.80;;
66175;SDS011;52977;44.816;20.538;2022-07-17T11:31:02;3.22;;;1.55;;
66175;SDS011;52977;44.816;20.538;2022-07-17T11:33:30;8.27;;;2.25;;
66175;SDS011;52977;44.816;20.538;2022-07-17T11:35:55;3.28;;;1.83;;
66175;SDS011;52977;44.816;20.538;2022-07-17T11:38:28;3.85;;;1.75;;
66175;SDS011;52977;44.816;20.538;2022-07-17T11:40:54;4.22;;;1.50;;
66175;SDS011;52977;44.816;20.538;2022-07-17T11:43:21;7.00;;;1.80;;
66175;SDS011;52977;44.816;20.538;2022-07-17T11:45:46;3.13;;;1.50;;
66175;SDS011;52977;44.816;20.538;2022-07-17T11:48:12;3.40;;;1.40;;
66175;SDS011;52977;44.816;20.538;2022-07-17T11:50:38;3.10;;;1.30;;
66175;SDS011;52977;44.816;20.538;2022-07-17T11:53:05;4.82;;;1.67;;
66175;SDS011;52977;44.816;20.538;2022-07-17T11:55:35;3.63;;;1.50;;
66175;SDS011;52977;44.816;20.538;2022-07-17T11:58:04;3.70;;;1.40;;
66175;SDS011;52977;44.816;20.538;2022-07-17T12:00:30;2.63;;;1.25;;
66175;SDS011;52977;44.816;20.538;2022-07-17T12:02:59;4.00;;;1.63;;
66175;SDS011;52977;44.816;20.538;2022-07-17T12:05:26;5.78;;;1.55;;
66175;SDS011;52977;44.816;20.538;2022-07-17T12:07:53;4.00;;;1.73;;
66175;SDS011;52977;44.816;20.538;2022-07-17T12:10:20;5.47;;;2.30;;
66175;SDS011;52977;44.816;20.538;2022-07-17T12:15:19;3.30;;;1.60;;
66175;SDS011;52977;44.816;20.538;2022-07-17T12:17:44;3.67;;;1.45;;
66175;SDS011;52977;44.816;20.538;2022-07-17T12:20:10;3.45;;;1.40;;
66175;SDS011;52977;44.816;20.538;2022-07-17T12:22:47;3.20;;;1.60;;
66175;SDS011;52977;44.816;20.538;2022-07-17T12:25:23;4.47;;;1.60;;
66175;SDS011;52977;44.816;20.538;2022-07-17T12:27:53;4.97;;;1.77;;
66175;SDS011;52977;44.816;20.538;2022-07-17T12:30:19;6.50;;;1.70;;
66175;SDS011;52977;44.816;20.538;2022-07-17T12:32:45;5.50;;;1.50;;
66175;SDS011;52977;44.816;20.538;2022-07-17T12:35:13;2.72;;;1.50;;
66175;SDS011;52977;44.816;20.538;2022-07-17T12:37:39;3.53;;;1.92;;
66175;SDS011;52977;44.816;20.538;2022-07-17T12:40:06;5.10;;;1.70;;
66175;SDS011;52977;44.816;20.538;2022-07-17T12:42:32;5.50;;;1.73;;
66175;SDS011;52977;44.816;20.538;2022-07-17T12:44:57;3.70;;;1.77;;
66175;SDS011;52977;44.816;20.538;2022-07-17T12:47:23;5.13;;;1.80;;
66175;SDS011;52977;44.816;20.538;2022-07-17T12:49:49;4.57;;;1.77;;
66175;SDS011;52977;44.816;20.538;2022-07-17T12:52:14;4.30;;;1.83;;
66175;SDS011;52977;44.816;20.538;2022-07-17T12:54:43;5.82;;;1.90;;
66175;SDS011;52977;44.816;20.538;2022-07-17T12:57:09;4.07;;;1.80;;
66175;SDS011;52977;44.816;20.538;2022-07-17T12:59:34;4.47;;;1.60;;
66175;SDS011;52977;44.816;20.538;2022-07-17T13:02:00;4.45;;;1.70;;
66175;SDS011;52977;44.816;20.538;2022-07-17T13:04:26;2.75;;;1.50;;
66175;SDS011;52977;44.816;20.538;2022-07-17T13:06:52;5.13;;;1.60;;
66175;SDS011;52977;44.816;20.538;2022-07-17T13:09:17;4.20;;;1.73;;
66175;SDS011;52977;44.816;20.538;2022-07-17T13:11:43;3.05;;;1.33;;
66175;SDS011;52977;44.816;20.538;2022-07-17T13:14:09;5.18;;;1.65;;
66175;SDS011;52977;44.816;20.538;2022-07-17T13:16:39;4.10;;;1.50;;
66175;SDS011;52977;44.816;20.538;2022-07-17T13:19:05;4.88;;;1.60;;
66175;SDS011;52977;44.816;20.538;2022-07-17T13:21:31;3.42;;;1.50;;
66175;SDS011;52977;44.816;20.538;2022-07-17T13:23:56;2.70;;;1.42;;
66175;SDS011;52977;44.816;20.538;2022-07-17T13:26:22;4.10;;;1.33;;
66175;SDS011;52977;44.816;20.538;2022-07-17T13:28:50;3.58;;;1.63;;
66175;SDS011;52977;44.816;20.538;2022-07-17T13:31:16;3.20;;;1.30;;
66175;SDS011;52977;44.816;20.538;2022-07-17T13:33:42;4.60;;;1.60;;
66175;SDS011;52977;44.816;20.538;2022-07-17T13:36:08;5.00;;;1.48;;
66175;SDS011;52977;44.816;20.538;2022-07-17T13:38:33;3.40;;;1.40;;
66175;SDS011;52977;44.816;20.538;2022-07-17T13:41:00;5.13;;;1.55;;
66175;SDS011;52977;44.816;20.538;2022-07-17T13:43:26;7.60;;;1.83;;
66175;SDS011;52977;44.816;20.538;2022-07-17T13:45:52;4.53;;;1.92;;
66175;SDS011;52977;44.816;20.538;2022-07-17T13:48:17;6.47;;;1.92;;
66175;SDS011;52977;44.816;20.538;2022-07-17T13:50:43;4.05;;;1.63;;
66175;SDS011;52977;44.816;20.538;2022-07-17T13:53:09;2.90;;;1.48;;
66175;SDS011;52977;44.816;20.538;2022-07-17T13:55:37;7.35;;;1.52;;
66175;SDS011;52977;44.816;20.538;2022-07-17T13:58:03;4.10;;;1.55;;
66175;SDS011;52977;44.816;20.538;2022-07-17T14:00:30;3.28;;;1.52;;
66175;SDS011;52977;44.816;20.538;2022-07-17T14:02:56;4.10;;;1.55;;
66175;SDS011;52977;44.816;20.538;2022-07-17T14:05:21;3.13;;;1.40;;
66175;SDS011;52977;44.816;20.538;2022-07-17T14:07:47;2.78;;;1.30;;
66175;SDS011;52977;44.816;20.538;2022-07-17T14:10:12;6.70;;;1.77;;
66175;SDS011;52977;44.816;20.538;2022-07-17T14:12:38;4.60;;;1.40;;
66175;SDS011;52977;44.816;20.538;2022-07-17T14:15:04;3.28;;;1.40;;
66175;SDS011;52977;44.816;20.538;2022-07-17T14:17:32;3.13;;;1.52;;
66175;SDS011;52977;44.816;20.538;2022-07-17T14:19:58;3.97;;;1.40;;
66175;SDS011;52977;44.816;20.538;2022-07-17T14:22:24;3.33;;;1.58;;
66175;SDS011;52977;44.816;20.538;2022-07-17T14:24:53;2.83;;;1.40;;
66175;SDS011;52977;44.816;20.538;2022-07-17T14:27:18;3.75;;;1.50;;
66175;SDS011;52977;44.816;20.538;2022-07-17T14:29:44;4.07;;;1.48;;
66175;SDS011;52977;44.816;20.538;2022-07-17T14:32:09;4.60;;;1.25;;
66175;SDS011;52977;44.816;20.538;2022-07-17T14:34:35;2.20;;;1.20;;
66175;SDS011;52977;44.816;20.538;2022-07-17T14:37:00;2.03;;;0.93;;
66175;SDS011;52977;44.816;20.538;2022-07-17T14:39:29;2.80;;;1.40;;
66175;SDS011;52977;44.816;20.538;2022-07-17T14:41:55;2.50;;;1.30;;
66175;SDS011;52977;44.816;20.538;2022-07-17T14:44:20;3.92;;;1.50;;
66175;SDS011;52977;44.816;20.538;2022-07-17T14:46:46;4.15;;;1.50;;